createdAt,value
2023-05-22T00:02:04.781Z,97.09
2023-05-22T00:06:10.514Z,100.00
2023-05-22T00:10:13.719Z,99.91
2023-05-22T00:14:18.794Z,100.00
2023-05-22T00:18:21.983Z,99.24
2023-05-22T00:22:25.284Z,100.00
2023-05-22T00:26:28.229Z,100.00
2023-05-22T00:30:33.722Z,100.00
2023-05-22T00:34:37.044Z,98.58
2023-05-22T00:38:40.005Z,96.51
2023-05-22T00:42:44.226Z,100.00
2023-05-22T00:46:49.762Z,100.00
2023-05-22T00:50:53.663Z,100.00
2023-05-22T00:54:56.959Z,96.03
2023-05-22T00:58:59.795Z,98.82
2023-05-22T01:03:05.908Z,100.00
2023-05-22T01:07:09.060Z,99.24
2023-05-22T01:11:22.015Z,99.64
2023-05-22T01:15:31.759Z,98.37
2023-05-22T01:19:54.028Z,98.30
2023-05-22T01:24:26.792Z,100.00
2023-05-22T01:28:46.075Z,100.00
2023-05-22T01:32:51.424Z,100.00
2023-05-22T01:36:54.880Z,100.00
2023-05-22T01:40:58.290Z,100.00
2023-05-22T01:45:01.159Z,96.76
2023-05-22T01:49:06.055Z,99.33
2023-05-22T01:53:13.785Z,100.00
2023-05-22T01:57:22.245Z,99.38
2023-05-22T02:01:36.038Z,97.91
2023-05-22T02:05:41.548Z,100.00
2023-05-22T02:09:46.226Z,100.00
2023-05-22T02:13:49.321Z,98.75
2023-05-22T02:17:53.379Z,100.00
2023-05-22T02:21:57.855Z,100.00
2023-05-22T02:26:00.998Z,100.00
2023-05-22T02:30:04.167Z,100.00
2023-05-22T02:34:07.411Z,100.00
2023-05-22T02:38:11.891Z,100.00
2023-05-22T02:42:14.965Z,100.00
2023-05-22T02:46:18.098Z,100.00
2023-05-22T02:50:21.272Z,100.00
2023-05-22T02:54:29.823Z,100.00
2023-05-22T02:58:32.856Z,98.93
2023-05-22T03:02:36.882Z,100.00
2023-05-22T03:06:40.172Z,98.97
2023-05-22T03:10:44.617Z,100.00
2023-05-22T03:14:49.046Z,100.00
2023-05-22T03:18:53.506Z,100.00
2023-05-22T03:22:56.809Z,100.00
2023-05-22T03:27:02.055Z,100.00
2023-05-22T03:31:05.934Z,100.00
2023-05-22T03:35:09.890Z,99.13
2023-05-22T03:39:14.551Z,100.00
2023-05-22T03:43:19.491Z,100.00
2023-05-22T03:47:23.491Z,100.00
2023-05-22T03:51:26.832Z,100.00
2023-05-22T03:55:31.098Z,100.00
2023-05-22T03:59:36.057Z,98.21
2023-05-22T04:03:41.987Z,99.54
2023-05-22T04:07:48.443Z,98.83
2023-05-22T04:11:53.568Z,99.69
2023-05-22T04:16:00.473Z,100.00
2023-05-22T04:20:05.272Z,100.00
2023-05-22T04:24:08.905Z,100.00
2023-05-22T04:28:13.181Z,100.00
2023-05-22T04:32:22.031Z,100.00
2023-05-22T04:36:26.462Z,100.00
2023-05-22T04:40:33.794Z,100.00
2023-05-22T04:44:38.635Z,100.00
2023-05-22T04:48:52.680Z,100.00
2023-05-22T04:52:55.888Z,100.00
2023-05-22T04:56:59.121Z,100.00
2023-05-22T05:01:03.511Z,97.10
2023-05-22T05:05:08.762Z,99.84
2023-05-22T05:09:12.213Z,100.00
2023-05-22T05:13:15.072Z,98.72
2023-05-22T05:17:18.174Z,84.69
2023-05-22T05:21:23.137Z,88.39
2023-05-22T05:25:27.216Z,93.12
2023-05-22T05:29:30.387Z,89.79
2023-05-22T05:33:33.178Z,88.46
2023-05-22T05:37:37.709Z,88.26
2023-05-22T05:41:43.773Z,90.47
2023-05-22T05:45:47.259Z,90.81
2023-05-22T05:49:50.518Z,89.47
2023-05-22T05:53:55.734Z,84.07
2023-05-22T05:58:01.111Z,85.04
2023-05-22T06:02:04.401Z,85.41
2023-05-22T06:06:10.779Z,85.04
2023-05-22T06:10:15.311Z,82.34
2023-05-22T06:14:18.486Z,79.39
2023-05-22T06:18:21.657Z,86.25
2023-05-22T06:22:26.058Z,86.88
2023-05-22T06:26:31.175Z,86.49
2023-05-22T06:30:40.042Z,87.23
2023-05-22T06:34:44.602Z,80.70
2023-05-22T06:38:49.733Z,84.29
2023-05-22T06:42:54.172Z,86.99
2023-05-22T06:46:57.384Z,84.91
2023-05-22T06:51:01.143Z,83.36
2023-05-22T06:55:05.912Z,83.54
2023-05-22T06:59:12.122Z,80.25
2023-05-22T07:03:15.425Z,78.37
2023-05-22T07:07:18.576Z,78.80
2023-05-22T07:11:21.671Z,82.36
2023-05-22T07:15:26.169Z,81.38
2023-05-22T07:19:29.393Z,80.88
2023-05-22T07:23:32.468Z,78.29
2023-05-22T07:27:35.627Z,77.92
2023-05-22T07:31:40.396Z,74.68
2023-05-22T07:35:43.899Z,72.23
2023-05-22T07:39:47.890Z,72.65
2023-05-22T07:43:50.932Z,72.98
2023-05-22T07:47:56.978Z,71.37
2023-05-22T07:51:59.995Z,71.04
2023-05-22T07:56:02.969Z,72.79
2023-05-22T08:00:14.434Z,71.09
2023-05-22T08:04:19.390Z,70.29
2023-05-22T08:08:22.870Z,73.26
2023-05-22T08:12:26.357Z,72.95
2023-05-22T08:16:31.164Z,72.14
2023-05-22T08:20:35.474Z,69.76
2023-05-22T08:24:38.575Z,68.68
2023-05-22T08:28:44.405Z,68.62
2023-05-22T08:32:47.535Z,69.33
2023-05-22T08:36:52.265Z,66.65
2023-05-22T08:40:55.638Z,67.30
2023-05-22T08:45:07.296Z,65.53
2023-05-22T08:49:10.887Z,62.10
2023-05-22T08:53:18.116Z,60.87
2023-05-22T08:57:21.458Z,60.27
2023-05-22T09:01:25.101Z,60.80
2023-05-22T09:05:28.375Z,62.20
2023-05-22T09:09:33.909Z,61.50
2023-05-22T09:13:40.943Z,60.71
2023-05-22T09:17:44.428Z,61.42
2023-05-22T09:21:48.250Z,61.21
2023-05-22T09:25:55.506Z,61.43
2023-05-22T09:29:59.033Z,62.59
2023-05-22T09:34:02.280Z,62.84
2023-05-22T09:38:05.320Z,60.55
2023-05-22T09:42:13.380Z,65.38
2023-05-22T09:46:19.921Z,61.71
2023-05-22T09:50:23.376Z,58.45
2023-05-22T09:54:27.172Z,59.04
2023-05-22T09:58:33.054Z,62.94
2023-05-22T10:02:37.748Z,62.23
2023-05-22T10:06:41.442Z,61.12
2023-05-22T10:10:45.016Z,60.67
2023-05-22T10:14:49.525Z,62.23
2023-05-22T10:18:53.916Z,56.69
2023-05-22T10:22:57.189Z,59.58
2023-05-22T10:27:00.908Z,55.16
2023-05-22T10:31:09.328Z,63.31
2023-05-22T10:35:19.782Z,56.21
2023-05-22T10:39:37.467Z,55.40
2023-05-22T10:43:42.771Z,57.78
2023-05-22T10:47:49.715Z,56.21
2023-05-22T10:51:57.558Z,52.83
2023-05-22T10:56:02.670Z,51.61
2023-05-22T11:00:14.010Z,50.71
2023-05-22T11:04:19.318Z,50.06
2023-05-22T11:08:41.036Z,51.32
2023-05-22T11:12:45.699Z,51.73
2023-05-22T11:16:49.281Z,52.82
2023-05-22T11:20:55.945Z,48.70
2023-05-22T11:24:59.233Z,53.68
2023-05-22T11:29:02.560Z,53.95
2023-05-22T11:33:06.764Z,59.99
2023-05-22T11:37:12.677Z,66.72
2023-05-22T11:41:17.566Z,62.02
2023-05-22T11:45:21.603Z,67.24
2023-05-22T11:49:25.520Z,64.87
2023-05-22T11:53:31.829Z,63.21
2023-05-22T11:57:44.611Z,68.07
2023-05-22T12:01:50.797Z,72.63
2023-05-22T12:05:53.938Z,70.46
2023-05-22T12:10:00.285Z,71.91
2023-05-22T12:14:04.049Z,76.38
2023-05-22T12:18:09.997Z,78.88
2023-05-22T12:22:14.360Z,77.85
2023-05-22T12:26:25.328Z,78.56
2023-05-22T12:30:28.538Z,79.13
2023-05-22T12:34:35.653Z,80.66
2023-05-22T12:38:39.868Z,77.45
2023-05-22T12:42:46.573Z,71.93
2023-05-22T12:46:49.735Z,62.94
2023-05-22T12:50:54.477Z,63.87
2023-05-22T12:54:57.986Z,59.16
2023-05-22T12:59:02.605Z,62.27
2023-05-22T13:03:06.859Z,56.25
2023-05-22T13:07:10.351Z,57.80
2023-05-22T13:11:13.879Z,59.23
2023-05-22T13:15:18.991Z,57.85
2023-05-22T13:19:31.637Z,56.49
2023-05-22T13:23:40.108Z,57.17
2023-05-22T13:27:43.544Z,57.91
2023-05-22T13:31:48.583Z,54.58
2023-05-22T13:35:51.942Z,55.45
2023-05-22T13:39:55.036Z,54.69
2023-05-22T13:44:01.736Z,55.25
2023-05-22T13:48:06.212Z,56.26
2023-05-22T13:52:09.341Z,53.65
2023-05-22T13:56:12.590Z,58.48
2023-05-22T14:00:16.334Z,56.97
2023-05-22T14:04:20.936Z,53.04
2023-05-22T14:08:24.151Z,53.30
2023-05-22T14:12:27.081Z,59.10
2023-05-22T14:16:30.414Z,57.05
2023-05-22T14:20:35.187Z,62.00
2023-05-22T14:24:38.410Z,55.61
2023-05-22T14:28:42.569Z,55.40
2023-05-22T14:32:47.032Z,57.51
2023-05-22T14:36:51.626Z,63.86
2023-05-22T14:40:55.900Z,68.12
2023-05-22T14:44:59.142Z,71.22
2023-05-22T14:49:04.095Z,66.05
2023-05-22T14:53:10.293Z,72.29
2023-05-22T14:57:13.447Z,75.58
2023-05-22T15:01:19.794Z,77.10
2023-05-22T15:05:24.057Z,75.15
2023-05-22T15:09:29.075Z,77.34
2023-05-22T15:13:32.043Z,81.89
2023-05-22T15:22:05.935Z,96.28
2023-05-22T15:26:22.858Z,91.57
2023-05-22T15:30:25.633Z,92.12
2023-05-22T15:34:28.192Z,88.13
2023-05-22T15:38:30.820Z,88.00
2023-05-22T15:42:35.016Z,93.22
2023-05-22T15:46:38.739Z,91.75
2023-05-22T15:50:41.726Z,88.94
2023-05-22T15:54:47.319Z,89.42
2023-05-22T15:58:51.412Z,87.84
2023-05-22T16:02:54.459Z,90.29
2023-05-22T16:06:57.193Z,86.89
2023-05-22T16:11:01.564Z,87.46
2023-05-22T16:15:07.197Z,89.14
2023-05-22T16:19:10.378Z,89.50
2023-05-22T16:23:13.226Z,89.89
2023-05-22T16:27:16.079Z,88.54
2023-05-22T16:31:20.197Z,88.77
2023-05-22T16:35:23.363Z,90.67
2023-05-22T16:39:27.530Z,90.29
2023-05-22T16:43:30.533Z,89.42
2023-05-22T16:47:34.737Z,95.08
2023-05-22T16:51:37.400Z,92.28
2023-05-22T16:55:40.798Z,94.84
2023-05-22T16:59:43.979Z,93.09
2023-05-22T17:03:48.428Z,98.94
2023-05-22T17:07:51.334Z,100.00
2023-05-22T17:11:54.572Z,100.00
2023-05-22T17:15:57.334Z,100.00
2023-05-22T17:20:02.122Z,100.00
2023-05-22T17:24:05.067Z,97.25
2023-05-22T17:28:08.114Z,100.00
2023-05-22T17:32:11.566Z,100.00
2023-05-22T17:36:15.674Z,100.00
2023-05-22T17:40:18.782Z,97.54
2023-05-22T17:44:21.685Z,98.86
2023-05-22T17:48:27.183Z,100.00
2023-05-22T17:52:31.453Z,100.00
2023-05-22T17:56:34.111Z,100.00
2023-05-22T18:00:36.859Z,98.31
2023-05-22T18:04:39.519Z,98.72
2023-05-22T18:08:43.591Z,100.00
2023-05-22T18:12:46.255Z,99.54
2023-05-22T18:16:49.115Z,97.80
2023-05-22T18:20:51.832Z,99.67
2023-05-22T18:24:56.187Z,97.25
2023-05-22T18:28:59.181Z,99.32
2023-05-22T18:33:01.998Z,100.00
2023-05-22T18:37:04.721Z,100.00
2023-05-22T18:41:09.023Z,100.00
2023-05-22T18:45:12.381Z,100.00
2023-05-22T18:49:15.123Z,98.75
2023-05-22T18:53:17.853Z,100.00
2023-05-22T18:57:21.842Z,100.00
2023-05-22T19:01:24.569Z,100.00
2023-05-22T19:05:27.329Z,98.98
2023-05-22T19:09:30.009Z,99.45
2023-05-22T19:13:34.035Z,100.00
2023-05-22T19:17:36.707Z,100.00
2023-05-22T19:21:39.512Z,100.00
2023-05-22T19:25:42.254Z,99.39
2023-05-22T19:29:46.275Z,100.00
2023-05-22T19:33:48.962Z,100.00
2023-05-22T19:37:51.683Z,100.00
2023-05-22T19:41:54.625Z,100.00
2023-05-22T19:45:59.042Z,100.00
2023-05-22T19:50:01.731Z,100.00
2023-05-22T19:54:04.858Z,100.00
2023-05-22T19:58:07.419Z,100.00
2023-05-22T20:02:11.693Z,98.50
2023-05-22T20:06:14.568Z,100.00
2023-05-22T20:10:17.371Z,100.00
2023-05-22T20:14:20.061Z,100.00
2023-05-22T20:18:24.812Z,100.00
2023-05-22T20:22:28.099Z,100.00
2023-05-22T20:26:30.843Z,100.00
2023-05-22T20:30:33.710Z,98.81
2023-05-22T20:34:38.520Z,100.00
2023-05-22T20:38:42.560Z,100.00
2023-05-22T20:42:46.340Z,100.00
2023-05-22T20:46:49.461Z,100.00
2023-05-22T20:50:53.524Z,100.00
2023-05-22T20:54:56.326Z,100.00
2023-05-22T20:58:59.113Z,100.00
2023-05-22T21:03:02.175Z,100.00
2023-05-22T21:07:06.403Z,100.00
2023-05-22T21:11:09.123Z,100.00
2023-05-22T21:15:12.432Z,100.00
2023-05-22T21:19:15.175Z,100.00
2023-05-22T21:23:19.380Z,100.00
2023-05-22T21:27:22.172Z,100.00
2023-05-22T21:31:24.871Z,100.00
2023-05-22T21:35:27.609Z,100.00
2023-05-22T21:39:31.697Z,100.00
2023-05-22T21:43:34.375Z,100.00
2023-05-22T21:47:37.189Z,100.00
2023-05-22T21:51:39.939Z,100.00
2023-05-22T21:55:44.191Z,100.00
2023-05-22T21:59:47.317Z,100.00
2023-05-22T22:03:49.929Z,100.00
2023-05-22T22:07:52.654Z,100.00
2023-05-22T22:11:56.715Z,100.00
2023-05-22T22:15:59.483Z,100.00
2023-05-22T22:20:02.276Z,100.00
2023-05-22T22:24:05.055Z,100.00
2023-05-22T22:28:09.110Z,100.00
2023-05-22T22:32:11.873Z,100.00
2023-05-22T22:36:14.580Z,100.00
2023-05-22T22:40:17.424Z,100.00
2023-05-22T22:44:21.487Z,100.00
2023-05-22T22:48:25.395Z,100.00
2023-05-22T22:52:28.156Z,100.00
2023-05-22T22:56:31.006Z,100.00
2023-05-22T23:00:35.039Z,100.00
2023-05-22T23:04:37.883Z,100.00
2023-05-22T23:08:40.887Z,100.00
2023-05-22T23:12:43.906Z,99.56
2023-05-22T23:16:48.245Z,100.00
2023-05-22T23:20:51.298Z,100.00
2023-05-22T23:24:54.007Z,100.00
2023-05-22T23:28:56.968Z,100.00
2023-05-22T23:33:02.430Z,100.00
2023-05-22T23:37:05.658Z,100.00
2023-05-22T23:41:08.363Z,100.00
2023-05-22T23:45:11.503Z,100.00
2023-05-22T23:49:15.885Z,100.00
2023-05-22T23:53:18.628Z,100.00
2023-05-22T23:57:21.366Z,100.00
